KLM1715 EHAM-ELLX
Flight info
| Callsign | KLM1715 |
|---|---|
| Flight time | 0h 38m |
| Altitude | 23000 |
| Route | LOPIK N852 LNO |
| Aircraft | E75L/M-SDE3GILORVW/S |
Departure
| Time | 2026-05-04 08:47 |
|---|---|
| Airport | Amsterdam Airport Schiphol (EHAM) |
Arrival
| Time | 2026-05-04 09:25 |
|---|---|
| Airport | Luxembourg-Findel International Airport (ELLX) |
| Time | Latitude | Longitude | Altitude | Speed | Heading |
|---|---|---|---|---|---|
| 2026-05-04 08:24 | 52.30111 | 4.75736 | -3 ft | 0 kts | 238° |
| 2026-05-04 08:40 | 52.30117 | 4.75753 | -3 ft | 4 kts | 240° |
| 2026-05-04 08:40 | 52.30129 | 4.75783 | -3 ft | 2 kts | 216° |
| 2026-05-04 08:41 | 52.30139 | 4.75785 | -3 ft | 2 kts | 159° |
| 2026-05-04 08:41 | 52.30149 | 4.75777 | -3 ft | 2 kts | 148° |
| 2026-05-04 08:42 | 52.30144 | 4.75782 | -3 ft | 2 kts | 148° |
| 2026-05-04 08:42 | 52.30124 | 4.75803 | -3 ft | 5 kts | 148° |
| 2026-05-04 08:43 | 52.30087 | 4.75836 | -3 ft | 7 kts | 154° |
| 2026-05-04 08:43 | 52.30045 | 4.75897 | -3 ft | 9 kts | 126° |
| 2026-05-04 08:43 | 52.30008 | 4.75998 | -3 ft | 11 kts | 98° |
| 2026-05-04 08:43 | 52.30041 | 4.76120 | -3 ft | 13 kts | 58° |
| 2026-05-04 08:44 | 52.30094 | 4.76257 | -3 ft | 15 kts | 57° |
| 2026-05-04 08:44 | 52.30155 | 4.76413 | -3 ft | 17 kts | 58° |
| 2026-05-04 08:46 | 52.30457 | 4.77639 | -3 ft | 13 kts | 150° |
| 2026-05-04 08:46 | 52.30407 | 4.77615 | -4 ft | 9 kts | 235° |
| 2026-05-04 08:46 | 52.30311 | 4.77374 | -5 ft | 63 kts | 237° |
| 2026-05-04 08:46 | 52.29914 | 4.76360 | -1 ft | 145 kts | 237° |
| 2026-05-04 08:47 | 52.29317 | 4.74798 | 656 ft | 171 kts | 235° |
| 2026-05-04 08:47 | 52.28599 | 4.73114 | 1560 ft | 192 kts | 233° |
| 2026-05-04 08:47 | 52.27743 | 4.71192 | 2158 ft | 222 kts | 234° |
| 2026-05-04 08:47 | 52.26750 | 4.69537 | 3104 ft | 204 kts | 213° |
| 2026-05-04 08:48 | 52.25367 | 4.68635 | 3745 ft | 225 kts | 186° |
| 2026-05-04 08:48 | 52.23830 | 4.69125 | 4255 ft | 232 kts | 149° |
| 2026-05-04 08:48 | 52.22748 | 4.71023 | 4850 ft | 235 kts | 121° |
| 2026-05-04 08:48 | 52.21928 | 4.73412 | 5512 ft | 250 kts | 119° |
| 2026-05-04 08:49 | 52.21055 | 4.75988 | 6045 ft | 272 kts | 120° |
| 2026-05-04 08:50 | 52.15174 | 4.92045 | 5985 ft | 275 kts | 140° |
| 2026-05-04 08:50 | 52.13587 | 4.93760 | 6071 ft | 273 kts | 151° |
| 2026-05-04 08:51 | 52.11937 | 4.95245 | 6919 ft | 273 kts | 152° |
| 2026-05-04 08:51 | 52.10253 | 4.96781 | 7715 ft | 280 kts | 151° |
| 2026-05-04 08:51 | 52.08557 | 4.98384 | 8563 ft | 283 kts | 151° |
| 2026-05-04 08:51 | 52.06852 | 5.00013 | 9444 ft | 286 kts | 152° |
| 2026-05-04 08:52 | 52.05124 | 5.01660 | 10253 ft | 292 kts | 152° |
| 2026-05-04 08:52 | 52.03296 | 5.03380 | 10596 ft | 314 kts | 152° |
| 2026-05-04 08:52 | 52.01338 | 5.05202 | 10889 ft | 336 kts | 152° |
| 2026-05-04 08:52 | 51.99284 | 5.07115 | 11510 ft | 344 kts | 152° |
| 2026-05-04 08:53 | 51.97204 | 5.09060 | 12413 ft | 346 kts | 152° |
| 2026-05-04 08:54 | 51.80978 | 5.18337 | 18156 ft | 371 kts | 167° |
| 2026-05-04 08:55 | 51.78474 | 5.19453 | 18905 ft | 374 kts | 167° |
| 2026-05-04 08:55 | 51.75967 | 5.20574 | 19677 ft | 375 kts | 168° |
| 2026-05-04 08:55 | 51.73445 | 5.21696 | 20405 ft | 377 kts | 168° |
| 2026-05-04 08:55 | 51.70920 | 5.22816 | 21069 ft | 379 kts | 168° |
| 2026-05-04 08:57 | 51.52954 | 5.30727 | 23006 ft | 380 kts | 169° |
| 2026-05-04 09:01 | 51.17385 | 5.45181 | 23010 ft | 374 kts | 172° |
| 2026-05-04 09:01 | 51.14825 | 5.46193 | 23032 ft | 375 kts | 168° |
| 2026-05-04 09:01 | 51.12343 | 5.47326 | 22971 ft | 376 kts | 168° |
| 2026-05-04 09:01 | 51.09808 | 5.48479 | 22986 ft | 374 kts | 168° |
| 2026-05-04 09:02 | 51.08144 | 5.49220 | 22981 ft | 374 kts | 168° |
| 2026-05-04 09:02 | 51.04822 | 5.50676 | 22990 ft | 374 kts | 168° |
| 2026-05-04 09:02 | 51.02308 | 5.51767 | 22987 ft | 374 kts | 168° |
| 2026-05-04 09:02 | 50.99795 | 5.52854 | 22993 ft | 374 kts | 168° |
| 2026-05-04 09:03 | 50.97280 | 5.53939 | 22994 ft | 374 kts | 168° |
| 2026-05-04 09:03 | 50.95583 | 5.54671 | 22982 ft | 374 kts | 168° |
| 2026-05-04 09:03 | 50.93068 | 5.55755 | 22992 ft | 375 kts | 168° |
| 2026-05-04 09:03 | 50.90589 | 5.56822 | 22996 ft | 375 kts | 168° |
| 2026-05-04 09:04 | 50.88070 | 5.57905 | 22996 ft | 375 kts | 168° |
| 2026-05-04 09:04 | 50.85518 | 5.59000 | 22999 ft | 375 kts | 168° |
| 2026-05-04 09:04 | 50.83031 | 5.60068 | 22994 ft | 375 kts | 168° |
| 2026-05-04 09:04 | 50.80510 | 5.61150 | 22990 ft | 376 kts | 168° |
| 2026-05-04 09:05 | 50.77983 | 5.62231 | 22992 ft | 376 kts | 168° |
| 2026-05-04 09:05 | 50.75458 | 5.63311 | 23008 ft | 376 kts | 168° |
| 2026-05-04 09:05 | 50.72930 | 5.64391 | 23013 ft | 377 kts | 168° |
| 2026-05-04 09:05 | 50.70402 | 5.65470 | 23011 ft | 377 kts | 168° |
| 2026-05-04 09:06 | 50.67873 | 5.66548 | 23014 ft | 376 kts | 168° |
| 2026-05-04 09:07 | 50.50679 | 5.75603 | 22426 ft | 348 kts | 162° |
| 2026-05-04 09:08 | 50.48442 | 5.76945 | 21976 ft | 340 kts | 163° |
| 2026-05-04 09:08 | 50.46245 | 5.78243 | 21466 ft | 335 kts | 163° |
| 2026-05-04 09:08 | 50.44068 | 5.79517 | 20894 ft | 333 kts | 162° |
| 2026-05-04 09:08 | 50.41904 | 5.80782 | 20283 ft | 332 kts | 162° |
| 2026-05-04 09:09 | 50.39731 | 5.82048 | 19622 ft | 334 kts | 162° |
| 2026-05-04 09:09 | 50.37545 | 5.83322 | 18888 ft | 337 kts | 162° |
| 2026-05-04 09:09 | 50.35338 | 5.84608 | 18101 ft | 341 kts | 161° |
| 2026-05-04 09:09 | 50.33098 | 5.85915 | 17163 ft | 346 kts | 161° |
| 2026-05-04 09:10 | 50.30840 | 5.87230 | 16341 ft | 347 kts | 161° |
| 2026-05-04 09:10 | 50.28581 | 5.88544 | 15602 ft | 346 kts | 161° |
| 2026-05-04 09:10 | 50.26333 | 5.89851 | 14938 ft | 343 kts | 161° |
| 2026-05-04 09:10 | 50.24148 | 5.91122 | 14780 ft | 326 kts | 161° |
| 2026-05-04 09:11 | 50.22088 | 5.92320 | 14739 ft | 306 kts | 162° |
| 2026-05-04 09:11 | 50.20140 | 5.93450 | 14539 ft | 295 kts | 162° |
| 2026-05-04 09:11 | 50.18225 | 5.94556 | 14123 ft | 293 kts | 162° |
| 2026-05-04 09:11 | 50.16312 | 5.95659 | 13636 ft | 293 kts | 162° |
| 2026-05-04 09:12 | 50.14406 | 5.96758 | 13148 ft | 291 kts | 162° |
| 2026-05-04 09:12 | 50.12513 | 5.97851 | 12706 ft | 289 kts | 162° |
| 2026-05-04 09:14 | 49.99573 | 6.05282 | 9672 ft | 279 kts | 161° |
| 2026-05-04 09:14 | 49.97751 | 6.06326 | 9224 ft | 278 kts | 161° |
| 2026-05-04 09:14 | 49.95940 | 6.07358 | 8803 ft | 276 kts | 161° |
| 2026-05-04 09:14 | 49.94139 | 6.08388 | 8374 ft | 275 kts | 161° |
| 2026-05-04 09:15 | 49.92347 | 6.09415 | 7966 ft | 274 kts | 161° |
| 2026-05-04 09:15 | 49.90566 | 6.10436 | 7563 ft | 272 kts | 161° |
| 2026-05-04 09:15 | 49.88791 | 6.11447 | 7180 ft | 271 kts | 161° |
| 2026-05-04 09:15 | 49.87037 | 6.12504 | 6770 ft | 270 kts | 153° |
| 2026-05-04 09:17 | 49.79230 | 6.30370 | 4507 ft | 246 kts | 101° |
| 2026-05-04 09:18 | 49.79027 | 6.32969 | 4398 ft | 237 kts | 96° |
| 2026-05-04 09:18 | 49.78957 | 6.35456 | 4341 ft | 228 kts | 92° |
| 2026-05-04 09:18 | 49.78967 | 6.37936 | 3943 ft | 235 kts | 90° |
| 2026-05-04 09:18 | 49.79038 | 6.40505 | 3540 ft | 241 kts | 88° |
| 2026-05-04 09:19 | 49.79168 | 6.43053 | 3422 ft | 233 kts | 86° |
| 2026-05-04 09:19 | 49.79357 | 6.45477 | 3317 ft | 229 kts | 84° |
| 2026-05-04 09:19 | 49.79149 | 6.47785 | 3282 ft | 212 kts | 121° |
| 2026-05-04 09:19 | 49.78222 | 6.49471 | 3352 ft | 201 kts | 142° |
| 2026-05-04 09:20 | 49.77001 | 6.50344 | 3288 ft | 194 kts | 183° |
| 2026-05-04 09:20 | 49.75696 | 6.49946 | 3144 ft | 190 kts | 197° |
| 2026-05-04 09:20 | 49.74471 | 6.49197 | 2971 ft | 187 kts | 202° |
| 2026-05-04 09:20 | 49.73311 | 6.48293 | 3174 ft | 195 kts | 212° |
| 2026-05-04 09:21 | 49.72170 | 6.47003 | 3372 ft | 210 kts | 218° |
| 2026-05-04 09:21 | 49.71129 | 6.45366 | 3373 ft | 216 kts | 231° |
| 2026-05-04 09:21 | 49.70368 | 6.43359 | 3017 ft | 222 kts | 250° |
| 2026-05-04 09:21 | 49.69921 | 6.41032 | 2462 ft | 226 kts | 249° |
| 2026-05-04 09:22 | 49.69254 | 6.39011 | 2598 ft | 193 kts | 236° |
| 2026-05-04 09:22 | 49.68608 | 6.37422 | 3033 ft | 173 kts | 237° |
| 2026-05-04 09:22 | 49.68007 | 6.35834 | 2958 ft | 169 kts | 239° |
| 2026-05-04 09:22 | 49.67502 | 6.34306 | 2845 ft | 149 kts | 241° |
| 2026-05-04 09:23 | 49.67032 | 6.32936 | 2668 ft | 141 kts | 239° |
| 2026-05-04 09:23 | 49.66535 | 6.31616 | 2499 ft | 144 kts | 237° |
| 2026-05-04 09:23 | 49.66019 | 6.30292 | 2280 ft | 144 kts | 238° |
| 2026-05-04 09:23 | 49.65531 | 6.28943 | 2090 ft | 144 kts | 240° |
| 2026-05-04 09:25 | 49.62490 | 6.20738 | 1189 ft | 44 kts | 240° |
| 2026-05-04 09:25 | 49.62470 | 6.20544 | 1187 ft | 14 kts | 323° |
| 2026-05-04 09:26 | 49.62516 | 6.20500 | 1188 ft | 4 kts | 330° |
| 2026-05-04 09:26 | 49.62544 | 6.20476 | 1189 ft | 5 kts | 331° |
| 2026-05-04 09:26 | 49.62576 | 6.20454 | 1190 ft | 5 kts | 351° |
| 2026-05-04 09:26 | 49.62603 | 6.20472 | 1192 ft | 5 kts | 44° |
| 2026-05-04 09:27 | 49.62634 | 6.20523 | 1193 ft | 9 kts | 46° |
| 2026-05-04 09:27 | 49.62685 | 6.20605 | 1196 ft | 12 kts | 40° |
| 2026-05-04 09:27 | 49.62757 | 6.20689 | 1201 ft | 13 kts | 40° |
| 2026-05-04 09:27 | 49.62820 | 6.20814 | 1204 ft | 17 kts | 62° |
| 2026-05-04 09:28 | 49.62873 | 6.20979 | 1205 ft | 17 kts | 64° |
| 2026-05-04 09:28 | 49.62926 | 6.21151 | 1204 ft | 19 kts | 65° |
| 2026-05-04 09:28 | 49.62985 | 6.21351 | 1204 ft | 21 kts | 65° |
| 2026-05-04 09:28 | 49.63053 | 6.21571 | 1203 ft | 23 kts | 64° |
| 2026-05-04 09:29 | 49.63122 | 6.21641 | 1207 ft | 9 kts | 330° |
| 2026-05-04 09:29 | 49.63136 | 6.21565 | 1209 ft | 9 kts | 249° |
| 2026-05-04 09:29 | 49.63121 | 6.21524 | 1208 ft | 0 kts | 237° |